Details for Thomas Cook Airlines at EGNX




Go Back


Latest METAR
Local Time

EGNX 232350Z 10012KT 9999 BKN023 01/M03 Q1021

23/02/2018, 23:56:58

Description
Results
Thomas Cook Airlines Logo
Number of Pilots based at EGNX
1 Pilots Based here
Number of Thomas Cook Airlines Flights Departed from EGNX
0 Flights Departed
Number of Thomas Cook Airlines Flights Arrived at EGNX
0 Flights Arrived
Number of Thomas Cook Airlines Schedules Departing from EGNX
9 Schedules
Number of Thomas Cook Airlines Schedules Arriving at EGNX
9 Schedules
Number of Thomas Cook Airlines Schedules Departing from EGNX availible today
2 Schedules Today
Number of Thomas Cook Airlines Schedules Arriving at EGNX availible today
2 Schedules Today
Average Landing Rate at EGNX
-224 fpm
Thomas Cook Airlines Average Landing Rate at EGNX
0 fpm
Total Fuel Purchased at EGNX by Thomas Cook Airlines
0.00 kgs / 0.00 lbs

Pilots Based at EGNX


Pilot ID
Pilot Name
Pilot Rank
No. of Flights
No. of Flying Hours
Guy Hall
255
349.15
Content